createdAt,value
2018-05-02T00:00:37.349Z,13.9
2018-05-02T00:01:27.688Z,13.9
2018-05-02T00:02:17.759Z,13.9
2018-05-02T00:03:07.527Z,13.9
2018-05-02T00:03:57.883Z,13.9
2018-05-02T00:04:47.938Z,13.9
2018-05-02T00:05:38.031Z,13.9
2018-05-02T00:06:28.094Z,13.9
2018-05-02T00:07:17.878Z,13.9
2018-05-02T00:08:08.012Z,14
2018-05-02T00:08:58.280Z,13.9
2018-05-02T00:09:48.052Z,13.9
2018-05-02T00:10:38.465Z,13.9
2018-05-02T00:11:28.195Z,13.9
2018-05-02T00:12:17.981Z,13.9
2018-05-02T00:13:08.584Z,13.9
2018-05-02T00:13:58.661Z,13.9
2018-05-02T00:14:48.828Z,13.9
2018-05-02T00:15:38.539Z,13.8
2018-05-02T00:16:28.558Z,13.8
2018-05-02T00:17:18.634Z,13.8
2018-05-02T00:18:09.007Z,13.8
2018-05-02T00:18:58.784Z,13.8
2018-05-02T00:19:48.835Z,13.7
2018-05-02T00:20:39.173Z,13.7
2018-05-02T00:21:28.969Z,13.7
2018-05-02T00:22:19.321Z,13.6
2018-05-02T00:23:09.342Z,13.6
2018-05-02T00:23:59.251Z,13.5
2018-05-02T00:24:49.216Z,13.5
2018-05-02T00:25:39.546Z,13.4
2018-05-02T00:26:29.613Z,13.4
2018-05-02T00:27:19.113Z,13.3
2018-05-02T00:28:09.545Z,13.3
2018-05-02T00:28:59.548Z,13.3
2018-05-02T00:29:49.304Z,13.2
2018-05-02T00:30:39.962Z,13.2
2018-05-02T00:31:29.735Z,13.1
2018-05-02T00:32:20.095Z,13.1
2018-05-02T00:33:09.295Z,13.1
2018-05-02T00:34:00.505Z,13
2018-05-02T00:34:49.995Z,13
2018-05-02T00:35:40.324Z,12.9
2018-05-02T00:36:30.140Z,12.9
2018-05-02T00:37:19.925Z,12.9
2018-05-02T00:38:10.262Z,12.8
2018-05-02T00:39:00.315Z,12.8
2018-05-02T00:39:50.665Z,12.8
2018-05-02T00:40:40.461Z,12.8
2018-05-02T00:41:30.824Z,12.7
2018-05-02T00:42:20.858Z,12.7
2018-05-02T00:43:10.918Z,12.6
2018-05-02T00:44:00.716Z,12.6
2018-05-02T00:44:51.053Z,12.6
2018-05-02T00:45:41.100Z,12.5
2018-05-02T00:46:31.165Z,12.5
2018-05-02T00:47:20.967Z,12.4
2018-05-02T00:48:11.019Z,12.4
2018-05-02T00:49:01.376Z,12.4
2018-05-02T00:49:51.420Z,12.3
2018-05-02T00:50:41.511Z,12.3
2018-05-02T00:51:31.278Z,12.3
2018-05-02T00:52:21.634Z,12.2
2018-05-02T00:53:11.696Z,12.2
2018-05-02T00:54:01.187Z,12.1
2018-05-02T00:54:51.814Z,12.1
2018-05-02T00:55:41.619Z,12
2018-05-02T00:56:31.657Z,12
2018-05-02T00:57:21.735Z,12
2018-05-02T00:58:11.795Z,11.9
2018-05-02T00:59:01.864Z,11.9
2018-05-02T00:59:51.941Z,11.9
2018-05-02T01:00:42.004Z,11.9
2018-05-02T01:01:32.078Z,11.8
2018-05-02T01:02:22.413Z,11.8
2018-05-02T01:03:12.458Z,11.8
2018-05-02T01:04:02.266Z,11.7
2018-05-02T01:04:52.310Z,11.7
2018-05-02T01:05:42.403Z,11.7
2018-05-02T01:06:32.457Z,11.6
2018-05-02T01:07:22.788Z,11.6
2018-05-02T01:08:12.287Z,11.6
2018-05-02T01:09:02.075Z,11.6
2018-05-02T01:09:52.978Z,11.5
2018-05-02T01:10:42.779Z,11.5
2018-05-02T01:11:33.130Z,11.4
2018-05-02T01:12:23.159Z,11.4
2018-05-02T01:13:13.238Z,11.4
2018-05-02T01:14:03.059Z,11.4
2018-05-02T01:14:53.376Z,11.4
2018-05-02T01:15:43.438Z,11.4
2018-05-02T01:16:33.502Z,11.3
2018-05-02T01:17:23.285Z,11.3
2018-05-02T01:18:13.627Z,11.3
2018-05-02T01:19:03.689Z,11.3
2018-05-02T01:19:53.760Z,11.3
2018-05-02T01:20:43.819Z,11.3
2018-05-02T01:21:33.883Z,11.3
2018-05-02T01:22:23.947Z,11.2
2018-05-02T01:23:14.014Z,11.2
2018-05-02T01:24:04.069Z,11.2
2018-05-02T01:24:53.890Z,11.2
2018-05-02T01:25:44.225Z,11.1
2018-05-02T01:26:33.996Z,11.1
2018-05-02T01:27:24.053Z,11.1
2018-05-02T01:28:14.415Z,11.1
2018-05-02T01:29:04.214Z,11.1
2018-05-02T01:29:54.262Z,11
2018-05-02T01:30:44.312Z,11
2018-05-02T01:31:34.661Z,11.1
2018-05-02T01:32:24.730Z,11
2018-05-02T01:33:14.797Z,11
2018-05-02T01:34:04.319Z,11
2018-05-02T01:34:54.918Z,10.9
2018-05-02T01:35:44.982Z,10.9
2018-05-02T01:36:34.767Z,10.9
2018-05-02T01:37:24.850Z,10.9
2018-05-02T01:38:14.886Z,10.9
2018-05-02T01:39:04.968Z,10.9
2018-05-02T01:39:54.746Z,10.9
2018-05-02T01:40:45.370Z,10.8
2018-05-02T01:41:35.432Z,10.8
2018-05-02T01:42:25.212Z,10.8
2018-05-02T01:43:15.561Z,10.8
2018-05-02T01:44:05.633Z,10.8
2018-05-02T01:44:55.714Z,10.8
2018-05-02T01:45:45.508Z,10.8
2018-05-02T01:46:35.897Z,10.8
2018-05-02T01:47:25.618Z,10.8
2018-05-02T01:48:15.680Z,10.8
2018-05-02T01:49:06.028Z,10.8
2018-05-02T01:49:56.116Z,10.8
2018-05-02T01:50:45.868Z,10.8
2018-05-02T01:51:36.245Z,10.8
2018-05-02T01:52:25.993Z,10.7
2018-05-02T01:53:16.350Z,10.7
2018-05-02T01:54:06.130Z,10.7
2018-05-02T01:54:56.192Z,10.7
2018-05-02T01:55:46.260Z,10.7
2018-05-02T01:56:36.610Z,10.6
2018-05-02T01:57:26.394Z,10.6
2018-05-02T01:58:16.767Z,10.6
2018-05-02T01:59:06.517Z,10.6
2018-05-02T01:59:56.873Z,10.6
2018-05-02T02:00:46.933Z,10.6
2018-05-02T02:01:36.990Z,10.6
2018-05-02T02:02:27.051Z,10.6
2018-05-02T02:03:17.216Z,10.6
2018-05-02T02:04:07.184Z,10.6
2018-05-02T02:04:57.276Z,10.6
2018-05-02T02:05:47.316Z,10.5
2018-05-02T02:06:37.393Z,10.5
2018-05-02T02:07:27.437Z,10.5
2018-05-02T02:08:17.240Z,10.5
2018-05-02T02:09:07.590Z,10.5
2018-05-02T02:09:57.642Z,10.5
2018-05-02T02:10:47.723Z,10.4
2018-05-02T02:11:37.508Z,10.4
2018-05-02T02:12:27.283Z,10.4
2018-05-02T02:13:17.645Z,10.4
2018-05-02T02:14:07.696Z,10.4
2018-05-02T02:14:57.764Z,10.4
2018-05-02T02:15:48.106Z,10.4
2018-05-02T02:16:38.186Z,10.4
2018-05-02T02:17:28.254Z,10.4
2018-05-02T02:18:18.112Z,10.4
2018-05-02T02:19:07.783Z,10.4
2018-05-02T02:19:58.434Z,10.4
2018-05-02T02:20:48.211Z,10.4
2018-05-02T02:21:38.547Z,10.3
2018-05-02T02:22:28.619Z,10.3
2018-05-02T02:23:18.692Z,10.3
2018-05-02T02:24:08.528Z,10.3
2018-05-02T02:24:58.808Z,10.3
2018-05-02T02:25:48.606Z,10.3
2018-05-02T02:26:38.940Z,10.3
2018-05-02T02:27:29.011Z,10.3
2018-05-02T02:28:18.783Z,10.2
2018-05-02T02:29:09.144Z,10.2
2018-05-02T02:29:59.181Z,10.2
2018-05-02T02:30:48.996Z,10.1
2018-05-02T02:31:38.779Z,10.1
2018-05-02T02:32:29.397Z,10.1
2018-05-02T02:33:19.469Z,10.1
2018-05-02T02:34:09.220Z,10.1
2018-05-02T02:34:59.305Z,10.1
2018-05-02T02:35:49.647Z,10.1
2018-05-02T02:36:39.434Z,10.1
2018-05-02T02:37:29.494Z,10
2018-05-02T02:38:19.572Z,10
2018-05-02T02:39:09.652Z,10
2018-05-02T02:39:59.992Z,9.9
2018-05-02T02:40:49.765Z,9.9
2018-05-02T02:41:40.111Z,9.9
2018-05-02T02:42:30.171Z,9.9
2018-05-02T02:43:20.001Z,9.9
2018-05-02T02:44:10.336Z,9.9
2018-05-02T02:45:00.095Z,9.9
2018-05-02T02:45:50.444Z,9.9
2018-05-02T02:46:40.507Z,9.8
2018-05-02T02:47:30.567Z,9.8
2018-05-02T02:48:20.638Z,9.8
2018-05-02T02:49:10.422Z,9.8
2018-05-02T02:50:00.495Z,9.8
2018-05-02T02:50:50.815Z,9.8
2018-05-02T02:51:40.899Z,9.8
2018-05-02T02:52:30.942Z,9.8
2018-05-02T02:53:21.034Z,9.7
2018-05-02T02:54:10.814Z,9.7
2018-05-02T02:55:01.147Z,9.7
2018-05-02T02:55:50.923Z,9.7
2018-05-02T02:56:41.280Z,9.6
2018-05-02T02:57:31.066Z,9.6
2018-05-02T02:58:21.386Z,9.6
2018-05-02T02:59:11.460Z,9.6
2018-05-02T03:00:01.246Z,9.6
2018-05-02T03:00:51.672Z,9.6
2018-05-02T03:01:41.385Z,9.6
2018-05-02T03:02:31.168Z,9.5
2018-05-02T03:03:21.494Z,9.5
2018-05-02T03:04:11.581Z,9.5
2018-05-02T03:05:01.666Z,9.5
2018-05-02T03:05:51.715Z,9.5
2018-05-02T03:06:41.485Z,9.5
2018-05-02T03:07:31.808Z,9.4
2018-05-02T03:08:21.892Z,9.4
2018-05-02T03:09:11.964Z,9.4
2018-05-02T03:10:02.321Z,9.4
2018-05-02T03:10:52.086Z,9.4
2018-05-02T03:11:42.459Z,9.4
2018-05-02T03:12:32.215Z,9.4
2018-05-02T03:13:22.274Z,9.4
2018-05-02T03:14:12.659Z,9.4
2018-05-02T03:15:02.411Z,9.4
2018-05-02T03:15:52.465Z,9.4
2018-05-02T03:16:42.817Z,9.3
2018-05-02T03:17:32.587Z,9.3
2018-05-02T03:18:22.384Z,9.3
2018-05-02T03:19:13.034Z,9.3
2018-05-02T03:20:03.094Z,9.3
2018-05-02T03:20:52.856Z,9.3
2018-05-02T03:21:43.215Z,9.3
2018-05-02T03:22:33.277Z,9.3
2018-05-02T03:23:23.355Z,9.3
2018-05-02T03:24:13.415Z,9.3
2018-05-02T03:25:02.897Z,9.3
2018-05-02T03:25:53.626Z,9.3
2018-05-02T03:26:43.647Z,9.3
2018-05-02T03:27:33.375Z,9.2
2018-05-02T03:28:23.699Z,9.2
2018-05-02T03:29:13.499Z,9.2
2018-05-02T03:30:03.996Z,9.2
2018-05-02T03:30:54.043Z,9.2
2018-05-02T03:31:43.722Z,9.2
2018-05-02T03:32:34.044Z,9.2
2018-05-02T03:33:23.826Z,9.2
2018-05-02T03:34:13.892Z,9.1
2018-05-02T03:35:03.959Z,9.1
2018-05-02T03:35:54.307Z,9.1
2018-05-02T03:36:44.371Z,9.1
2018-05-02T03:37:34.440Z,9.1
2018-05-02T13:28:39.092Z,61.3
2018-05-02T13:29:29.436Z,60.9
2018-05-02T13:30:19.519Z,60.3
2018-05-02T13:31:09.293Z,59.4
2018-05-02T13:31:59.623Z,58.9
2018-05-02T13:32:49.409Z,58.8
2018-05-02T13:33:39.487Z,58.9
2018-05-02T13:34:29.817Z,59.1
2018-05-02T13:35:19.892Z,59.2
2018-05-02T13:36:09.412Z,59.3
2018-05-02T13:37:00.033Z,59.3
2018-05-02T13:37:50.095Z,59.1
2018-05-02T13:38:39.877Z,58.8
2018-05-02T13:39:30.444Z,58.5
2018-05-02T13:40:20.023Z,58.2
2018-05-02T13:41:10.357Z,58.1
2018-05-02T13:42:00.425Z,57.9
2018-05-02T13:42:50.489Z,57.7
2018-05-02T13:43:40.576Z,57.4
2018-05-02T13:44:30.359Z,57.1
2018-05-02T13:45:20.425Z,57.1
2018-05-02T13:46:10.748Z,56.9
2018-05-02T13:47:00.817Z,56.4
2018-05-02T13:47:50.343Z,55.9
2018-05-02T13:48:41.030Z,55.6
2018-05-02T13:49:31.021Z,55.1
2018-05-02T13:50:21.081Z,54.6
2018-05-02T13:51:11.167Z,54.1
2018-05-02T13:52:01.233Z,53.6
2018-05-02T13:52:50.737Z,53.1
2018-05-02T13:53:41.349Z,52.7
2018-05-02T13:55:21.498Z,52.3
2018-05-02T13:56:11.551Z,52.3
2018-05-02T13:57:51.697Z,52.2
2018-05-02T13:58:41.560Z,51.8
2018-05-02T13:59:31.809Z,51.3
2018-05-02T14:00:21.898Z,50.8
2018-05-02T14:01:11.981Z,50.3
2018-05-02T14:02:01.754Z,49.9
2018-05-02T14:02:51.800Z,49.6
2018-05-02T14:03:42.152Z,49.3
2018-05-02T14:04:32.284Z,49
2018-05-02T14:05:22.335Z,48.8
2018-05-02T14:06:12.057Z,48.6
2018-05-02T14:07:02.143Z,48.3
2018-05-02T14:07:52.220Z,48
2018-05-02T14:08:42.352Z,47.7
2018-05-02T14:09:32.431Z,47.4
2018-05-02T14:10:22.668Z,47.1
2018-05-02T14:11:12.162Z,46.8
2018-05-02T14:12:02.822Z,46.5
2018-05-02T14:12:52.863Z,46.3
2018-05-02T14:13:42.920Z,46
2018-05-02T14:14:32.988Z,45.8
2018-05-02T14:15:22.792Z,45.5
2018-05-02T14:16:13.143Z,45.3
2018-05-02T14:17:03.211Z,45.1
2018-05-02T14:17:52.969Z,44.8
2018-05-02T14:18:43.056Z,44.6
2018-05-02T14:19:33.408Z,44.4
2018-05-02T14:20:23.182Z,44.3
2018-05-02T14:21:13.527Z,44.1
2018-05-02T14:22:03.589Z,43.8
2018-05-02T14:22:53.376Z,43.7
2018-05-02T14:23:43.439Z,43.5
2018-05-02T14:24:33.795Z,43.4
2018-05-02T14:25:23.860Z,43.3
2018-05-02T14:26:13.635Z,43.1
2018-05-02T14:27:03.422Z,43
2018-05-02T14:27:54.062Z,42.8
2018-05-02T14:28:44.107Z,42.7
2018-05-02T14:29:34.221Z,42.5
2018-05-02T14:30:24.248Z,42.4
2018-05-02T14:31:13.786Z,42.2
2018-05-02T14:32:04.454Z,42.1
2018-05-02T14:32:54.677Z,41.9
2018-05-02T14:33:44.493Z,41.8
2018-05-02T14:34:34.563Z,41.7
2018-05-02T14:35:24.649Z,41.6
2018-05-02T14:36:14.696Z,41.4
2018-05-02T14:37:04.781Z,41.3
2018-05-02T14:37:54.838Z,41.1
2018-05-02T14:38:44.900Z,40.9
2018-05-02T14:39:34.976Z,40.8
2018-05-02T14:40:25.042Z,40.7
2018-05-02T14:41:15.089Z,40.6
2018-05-02T14:42:05.175Z,40.4
2018-05-02T14:42:55.248Z,40.3
2018-05-02T14:43:45.027Z,40.2
2018-05-02T14:44:35.074Z,40.1
2018-05-02T14:45:25.896Z,40
2018-05-02T14:46:15.493Z,39.9
2018-05-02T14:47:05.569Z,39.9
2018-05-02T14:47:55.624Z,39.8
2018-05-02T14:48:45.685Z,39.7
2018-05-02T14:49:35.757Z,39.6
2018-05-02T14:50:25.812Z,39.5
2018-05-02T14:51:15.908Z,39.4
2018-05-02T14:52:05.675Z,39.3
2018-05-02T14:52:56.104Z,39.2
2018-05-02T14:53:46.116Z,39.1
2018-05-02T14:54:35.623Z,38.9
2018-05-02T14:55:26.194Z,38.8
2018-05-02T14:56:16.261Z,38.8
2018-05-02T14:57:06.353Z,38.6
2018-05-02T14:57:56.394Z,38.5
2018-05-02T14:58:46.456Z,38.4
2018-05-02T14:59:36.537Z,38.4
2018-05-02T15:00:26.647Z,38.3
2018-05-02T15:01:16.374Z,38.3
2018-05-02T15:02:07.153Z,38.1
2018-05-02T15:02:56.602Z,38.1
2018-05-02T15:03:46.870Z,37.9
2018-05-02T15:04:36.648Z,37.9
2018-05-02T15:05:27.001Z,37.8
2018-05-02T15:06:16.479Z,37.7
2018-05-02T15:07:07.131Z,37.6
2018-05-02T15:07:56.893Z,37.5
2018-05-02T15:08:47.270Z,37.4
2018-05-02T15:09:37.335Z,37.3
2018-05-02T15:10:27.368Z,37.2
2018-05-02T15:11:17.181Z,37.1
2018-05-02T15:12:07.250Z,37
2018-05-02T15:12:57.574Z,36.9
2018-05-02T15:13:47.638Z,36.8
2018-05-02T15:14:37.709Z,36.8
2018-05-02T15:15:27.831Z,36.7
2018-05-02T15:16:17.012Z,36.6
2018-05-02T15:17:07.916Z,36.6
2018-05-02T15:17:58.228Z,36.5
2018-05-02T15:18:48.041Z,36.4
2018-05-02T15:19:38.099Z,36.3
2018-05-02T15:20:27.902Z,36.3
2018-05-02T15:21:17.656Z,36.2
2018-05-02T15:22:08.307Z,36.1
2018-05-02T15:22:58.364Z,36.1
2018-05-02T15:23:47.900Z,36
2018-05-02T15:24:38.407Z,35.9
2018-05-02T15:25:28.555Z,35.9
2018-05-02T15:26:18.632Z,35.8
2018-05-02T15:27:08.687Z,35.8
2018-05-02T15:27:58.752Z,35.7
2018-05-02T15:28:48.806Z,35.6
2018-05-02T15:29:38.868Z,35.6
2018-05-02T15:30:28.664Z,35.5
2018-05-02T15:31:19.012Z,35.5
2018-05-02T15:32:09.079Z,35.4
2018-05-02T15:32:58.876Z,35.4
2018-05-02T15:33:49.203Z,35.4
2018-05-02T15:34:39.269Z,35.4
2018-05-02T15:35:29.345Z,35.3
2018-05-02T15:36:19.115Z,35.3
2018-05-02T15:37:09.475Z,35.3
2018-05-02T15:37:59.529Z,35.3
2018-05-02T15:38:49.580Z,35.3
2018-05-02T15:39:39.381Z,35.3
2018-05-02T15:40:29.444Z,35.2
2018-05-02T15:41:19.788Z,35.3
2018-05-02T15:42:09.851Z,35.3
2018-05-02T15:42:59.929Z,35.3
2018-05-02T15:43:50.004Z,35.2
2018-05-02T15:44:40.044Z,35.2
2018-05-02T15:45:30.115Z,35.2
2018-05-02T15:46:20.207Z,35.1
2018-05-02T15:47:09.988Z,35.1
2018-05-02T15:48:00.428Z,35.1
2018-05-02T15:48:50.112Z,35
2018-05-02T15:49:40.447Z,34.9
2018-05-02T15:50:30.510Z,34.9
2018-05-02T15:51:20.575Z,34.8
2018-05-02T15:52:10.096Z,34.8
2018-05-02T15:53:00.696Z,34.7
2018-05-02T15:53:50.772Z,34.6
2018-05-02T15:54:40.847Z,34.6
2018-05-02T15:55:30.932Z,34.5
2018-05-02T15:56:20.418Z,34.5
2018-05-02T15:57:11.027Z,34.4
2018-05-02T15:58:01.383Z,34.4
2018-05-02T15:58:51.232Z,34.3
2018-05-02T15:59:41.229Z,34.3
2018-05-02T16:00:31.289Z,34.2
2018-05-02T16:01:21.370Z,34.1
2018-05-02T16:02:11.149Z,34.1
2018-05-02T16:03:01.506Z,34.1
2018-05-02T16:03:51.555Z,34
2018-05-02T16:04:41.351Z,33.9
2018-05-02T16:05:31.425Z,33.9
2018-05-02T16:06:21.765Z,33.9
2018-05-02T16:07:11.910Z,33.9
2018-05-02T16:08:01.894Z,33.8
2018-05-02T16:08:51.968Z,33.8
2018-05-02T16:09:42.032Z,33.8
2018-05-02T16:10:31.818Z,33.8
2018-05-02T16:11:22.178Z,33.7
2018-05-02T16:12:12.234Z,33.7
2018-05-02T16:13:02.310Z,33.6
2018-05-02T16:13:52.078Z,33.6
2018-05-02T16:14:42.518Z,33.6
2018-05-02T16:15:31.909Z,33.5
2018-05-02T16:16:22.846Z,33.4
2018-05-02T16:17:12.610Z,33.4
2018-05-02T16:18:02.402Z,33.4
2018-05-02T16:18:52.476Z,33.3
2018-05-02T16:19:42.809Z,33.3
2018-05-02T16:20:32.600Z,33.3
2018-05-02T16:21:22.946Z,33.2
2018-05-02T16:22:13.547Z,33.2
2018-05-02T16:23:03.061Z,33.1
2018-05-02T16:23:52.852Z,33.1
2018-05-02T16:24:43.208Z,33.1
2018-05-02T16:25:33.011Z,33
2018-05-02T16:26:23.086Z,33
2018-05-02T16:27:13.109Z,32.9
2018-05-02T16:28:03.457Z,32.9
2018-05-02T16:28:53.035Z,32.9
2018-05-02T16:29:43.581Z,32.8
2018-05-02T16:30:33.854Z,32.8
2018-05-02T16:31:23.726Z,32.8
2018-05-02T16:32:13.781Z,32.8
2018-05-02T16:33:03.929Z,32.8
2018-05-02T16:33:53.917Z,32.7
2018-05-02T16:34:43.995Z,32.7
2018-05-02T16:35:34.061Z,32.6
2018-05-02T16:36:24.152Z,32.6
2018-05-02T16:37:13.905Z,32.5
2018-05-02T16:38:03.972Z,32.5
2018-05-02T16:38:54.303Z,32.4
2018-05-02T16:39:44.094Z,32.4
2018-05-02T16:40:34.466Z,32.4
2018-05-02T16:41:24.513Z,32.3
2018-05-02T16:42:14.557Z,32.3
2018-05-02T16:43:04.362Z,32.3
2018-05-02T16:43:54.437Z,32.3
2018-05-02T16:44:44.779Z,32.3
2018-05-02T16:45:34.832Z,32.3
2018-05-02T16:46:24.903Z,32.2
2018-05-02T16:47:14.958Z,32.2
2018-05-02T16:48:05.027Z,32.2
2018-05-02T16:48:54.816Z,32.1
2018-05-02T16:49:44.879Z,32.1
2018-05-02T16:50:35.218Z,32.1
2018-05-02T16:51:25.298Z,32
2018-05-02T16:52:15.373Z,32
2018-05-02T16:53:05.426Z,32
2018-05-02T16:53:55.476Z,31.9
2018-05-02T16:54:45.572Z,31.9
2018-05-02T16:55:35.048Z,31.9
2018-05-02T16:56:25.395Z,31.9
2018-05-02T16:57:15.755Z,31.8
2018-05-02T16:58:05.842Z,31.8
2018-05-02T16:58:55.867Z,31.7
2018-05-02T16:59:45.957Z,31.6
2018-05-02T17:00:36.003Z,31.6
2018-05-02T17:01:25.793Z,31.4
2018-05-02T17:02:15.852Z,31.4
2018-05-02T17:03:05.923Z,31.4
2018-05-02T17:03:56.254Z,31.3
2018-05-02T17:04:46.669Z,31.3
2018-05-02T17:05:36.392Z,31.2
2018-05-02T17:06:26.471Z,31.1
2018-05-02T17:07:16.313Z,31.1
2018-05-02T17:08:06.578Z,31
2018-05-02T17:08:56.460Z,30.9
2018-05-02T17:09:46.710Z,30.9
2018-05-02T17:10:36.779Z,30.8
2018-05-02T17:11:26.860Z,30.8
2018-05-02T17:12:16.906Z,30.7
2018-05-02T17:13:07.002Z,30.6
2018-05-02T17:13:57.066Z,30.6
2018-05-02T17:14:47.105Z,30.5
2018-05-02T17:15:37.183Z,30.4
2018-05-02T17:16:26.675Z,30.4
2018-05-02T17:17:17.307Z,30.4
2018-05-02T17:18:07.370Z,30.3
2018-05-02T17:18:57.424Z,30.3
2018-05-02T17:19:47.492Z,30.2
2018-05-02T17:20:37.549Z,30.1
2018-05-02T17:21:27.618Z,30.1
2018-05-02T17:22:18.430Z,30
2018-05-02T17:23:07.758Z,29.9
2018-05-02T17:23:57.533Z,29.9
2018-05-02T17:24:47.901Z,29.8
2018-05-02T17:25:37.658Z,29.8
2018-05-02T17:26:28.020Z,29.7
2018-05-02T17:27:18.078Z,29.6
2018-05-02T17:28:07.857Z,29.6
2018-05-02T17:28:57.929Z,29.5
2018-05-02T17:29:48.262Z,29.4
2018-05-02T17:30:38.333Z,29.4
2018-05-02T17:31:28.387Z,29.3
2018-05-02T17:32:18.182Z,29.3
2018-05-02T17:33:08.537Z,29.2
2018-05-02T17:33:58.602Z,29.2
2018-05-02T17:34:48.655Z,29.1
2018-05-02T17:35:38.157Z,29.1
2018-05-02T17:36:28.768Z,29
2018-05-02T17:37:18.843Z,28.9
2018-05-02T17:38:08.907Z,28.8
2018-05-02T17:38:58.971Z,28.8
2018-05-02T17:39:48.774Z,28.8
2018-05-02T17:40:39.109Z,28.7
2018-05-02T17:41:29.161Z,28.6
2018-05-02T17:42:19.259Z,28.6
2018-05-02T17:43:09.294Z,28.6
2018-05-02T17:43:58.811Z,28.5
2018-05-02T17:44:49.417Z,28.4
2018-05-02T17:45:39.507Z,28.4
2018-05-02T17:46:29.187Z,28.3
2018-05-02T17:47:19.058Z,28.3
2018-05-02T17:48:09.402Z,28.3
2018-05-02T17:48:59.756Z,28.2
2018-05-02T17:49:49.265Z,28.1
2018-05-02T17:50:39.878Z,28.1
2018-05-02T17:51:29.655Z,28
2018-05-02T17:52:20.020Z,28
2018-05-02T17:53:09.788Z,27.9
2018-05-02T17:54:00.144Z,27.9
2018-05-02T17:54:50.200Z,27.9
2018-05-02T17:56:30.030Z,27.8
2018-05-02T17:57:20.394Z,27.8
2018-05-02T17:58:10.454Z,27.7
2018-05-02T17:59:00.246Z,27.6
2018-05-02T17:59:50.579Z,27.6
2018-05-02T18:00:40.649Z,27.6
2018-05-02T18:01:30.725Z,27.6
2018-05-02T18:02:20.495Z,27.5
2018-05-02T18:03:10.845Z,27.5
2018-05-02T18:04:00.914Z,27.4
2018-05-02T18:04:50.978Z,27.4
2018-05-02T18:05:41.114Z,27.4
2018-05-02T18:06:31.104Z,27.4
2018-05-02T18:07:20.873Z,27.4
2018-05-02T18:08:10.958Z,27.3
2018-05-02T18:09:01.294Z,27.3
2018-05-02T18:09:51.061Z,27.2
2018-05-02T18:10:41.460Z,27.2
2018-05-02T18:11:31.474Z,27.1
2018-05-02T18:12:20.973Z,27.1
2018-05-02T18:13:11.617Z,27.1
2018-05-02T18:14:01.679Z,27.1
2018-05-02T18:14:51.732Z,27
2018-05-02T18:15:41.240Z,26.9
2018-05-02T18:16:31.885Z,26.9
2018-05-02T18:17:21.942Z,26.9
2018-05-02T18:18:12.010Z,26.9
2018-05-02T18:19:02.053Z,26.9
2018-05-02T18:19:52.189Z,26.8
2018-05-02T18:20:41.910Z,26.8
2018-05-02T18:21:32.269Z,26.8
2018-05-02T18:22:22.061Z,26.8
2018-05-02T18:23:12.101Z,26.7
2018-05-02T18:24:02.434Z,26.7
2018-05-02T18:24:52.026Z,26.7
2018-05-02T18:25:42.081Z,26.7
2018-05-02T18:26:32.364Z,26.6
2018-05-02T18:27:22.442Z,26.6
2018-05-02T18:28:12.946Z,26.6
2018-05-02T18:29:02.825Z,26.6
2018-05-02T18:29:52.887Z,26.5
2018-05-02T18:30:42.693Z,26.5
2018-05-02T18:31:33.028Z,26.5
2018-05-02T18:32:23.085Z,26.4
2018-05-02T18:33:13.148Z,26.4
2018-05-02T18:34:03.215Z,26.4
2018-05-02T18:34:53.007Z,26.4
2018-05-02T18:35:43.068Z,26.3
2018-05-02T18:36:34.035Z,26.3
2018-05-02T18:37:23.489Z,26.3
2018-05-02T18:38:13.259Z,26.2
2018-05-02T18:39:03.617Z,26.1
2018-05-02T18:39:53.378Z,26.1
2018-05-02T18:40:43.454Z,26.1
2018-05-02T18:41:33.807Z,26
2018-05-02T18:42:23.860Z,26
2018-05-02T18:43:13.924Z,25.9
2018-05-02T18:44:03.414Z,25.9
2018-05-02T18:44:53.777Z,25.9
2018-05-02T18:45:44.135Z,25.9
2018-05-02T18:46:34.283Z,25.9
2018-05-02T18:47:23.680Z,25.9
2018-05-02T18:48:14.311Z,25.8
2018-05-02T18:49:04.098Z,25.8
2018-05-02T18:49:54.161Z,25.8
2018-05-02T18:50:44.231Z,25.8
2018-05-02T18:51:34.305Z,25.7
2018-05-02T18:52:24.363Z,25.7
2018-05-02T18:53:14.958Z,25.7
2018-05-02T18:54:04.492Z,25.6
2018-05-02T18:54:54.562Z,25.6
2018-05-02T18:55:44.887Z,25.6
2018-05-02T18:56:34.966Z,25.6
2018-05-02T18:57:24.745Z,25.6
2018-05-02T18:58:15.090Z,25.5
2018-05-02T18:59:05.171Z,25.5
2018-05-02T18:59:55.224Z,25.5
2018-05-02T19:00:45.290Z,25.4
2018-05-02T19:01:35.341Z,25.4
2018-05-02T19:02:25.127Z,25.4
2018-05-02T19:03:15.201Z,25.4
2018-05-02T19:04:05.546Z,25.4
2018-05-02T19:04:55.330Z,25.3
2018-05-02T19:05:45.689Z,25.3
2018-05-02T19:06:35.807Z,25.3
2018-05-02T19:07:25.537Z,25.3
2018-05-02T19:08:15.302Z,25.3
2018-05-02T19:09:05.379Z,25.2
2018-05-02T19:09:56.004Z,25.2
2018-05-02T19:10:46.062Z,25.2
2018-05-02T19:11:35.828Z,25.1
2018-05-02T19:12:26.173Z,25.1
2018-05-02T19:13:16.270Z,25.1
2018-05-02T19:14:05.742Z,25.1
2018-05-02T19:14:56.368Z,25.1
2018-05-02T19:15:46.173Z,25
2018-05-02T19:16:36.498Z,25
2018-05-02T19:17:26.581Z,25
2018-05-02T19:18:16.347Z,24.9
2018-05-02T19:19:06.694Z,24.9
2018-05-02T19:19:56.471Z,24.9
2018-05-02T19:20:46.829Z,24.9
2018-05-02T19:21:36.334Z,24.9
2018-05-02T19:22:26.959Z,24.9
2018-05-02T19:23:17.017Z,24.9
2018-05-02T19:24:06.902Z,24.9
2018-05-02T19:24:57.138Z,24.8
2018-05-02T19:25:47.209Z,24.8
2018-05-02T19:26:37.316Z,24.8
2018-05-02T19:27:27.365Z,24.8
2018-05-02T19:28:17.424Z,24.8
2018-05-02T19:29:06.899Z,24.8
2018-05-02T19:29:57.639Z,24.8
2018-05-02T19:30:47.328Z,24.7
2018-05-02T19:31:37.384Z,24.7
2018-05-02T19:32:27.245Z,24.6
2018-05-02T19:33:17.306Z,24.6
2018-05-02T19:34:07.368Z,24.6
2018-05-02T19:34:57.915Z,24.6
2018-05-02T19:35:47.726Z,24.6
2018-05-02T19:36:38.152Z,24.6
2018-05-02T19:37:27.833Z,24.6
2018-05-02T19:38:18.212Z,24.5
2018-05-02T19:39:07.389Z,24.5
2018-05-02T19:39:58.342Z,24.5
2018-05-02T19:40:48.109Z,24.4
2018-05-02T19:41:38.155Z,24.4
2018-05-02T19:42:28.218Z,24.4
2018-05-02T19:43:18.563Z,24.4
2018-05-02T19:44:08.658Z,24.4
2018-05-02T19:44:58.414Z,24.4
2018-05-02T19:45:48.762Z,24.4
2018-05-02T19:46:38.821Z,24.4
2018-05-02T19:47:28.337Z,24.4
2018-05-02T19:48:18.959Z,24.3
2018-05-02T19:49:09.030Z,24.3
2018-05-02T19:49:58.817Z,24.3
2018-05-02T19:50:48.867Z,24.3
2018-05-02T19:51:39.205Z,24.3
2018-05-02T19:52:29.001Z,24.3
2018-05-02T19:53:19.076Z,24.3
2018-05-02T19:54:09.404Z,24.3
2018-05-02T19:54:59.473Z,24.3
2018-05-02T19:55:49.635Z,24.3
2018-05-02T19:56:39.023Z,24.3
2018-05-02T19:57:29.681Z,24.2
2018-05-02T19:58:19.712Z,24.2
2018-05-02T19:59:09.776Z,24.1
2018-05-02T19:59:59.861Z,24.1
2018-05-02T20:00:49.946Z,24.1
2018-05-02T20:01:39.972Z,24.1
2018-05-02T20:02:30.043Z,24
2018-05-02T20:03:19.823Z,23.9
2018-05-02T20:04:10.184Z,23.9
2018-05-02T20:05:00.251Z,23.9
2018-05-02T20:05:50.313Z,23.8
2018-05-02T20:06:40.087Z,23.8
2018-05-02T20:07:30.425Z,23.8
2018-05-02T20:08:20.497Z,23.7
2018-05-02T20:09:10.577Z,23.7
2018-05-02T20:10:00.633Z,23.7
2018-05-02T20:10:50.801Z,23.6
2018-05-02T20:11:40.775Z,23.6
2018-05-02T20:12:30.539Z,23.6
2018-05-02T20:13:20.907Z,23.6
2018-05-02T20:14:10.952Z,23.5
2018-05-02T20:15:01.092Z,23.5
2018-05-02T20:15:51.074Z,23.5
2018-05-02T20:16:41.152Z,23.4
2018-05-02T20:17:31.217Z,23.4
2018-05-02T20:18:21.275Z,23.4
2018-05-02T20:19:11.401Z,23.4
2018-05-02T20:20:01.421Z,23.3
2018-05-02T20:20:51.467Z,23.3
2018-05-02T20:21:41.238Z,23.3
2018-05-02T20:22:31.588Z,23.3
2018-05-02T20:23:21.380Z,23.3
2018-05-02T20:24:11.735Z,23.2
2018-05-02T20:25:01.514Z,23.2
2018-05-02T20:25:51.277Z,23.1
2018-05-02T20:26:41.943Z,23.1
2018-05-02T20:27:32.004Z,23.1
2018-05-02T20:28:21.769Z,23.1
2018-05-02T20:29:12.119Z,23.1
2018-05-02T20:30:01.923Z,23
2018-05-02T20:30:52.211Z,23
2018-05-02T20:31:41.746Z,23
2018-05-02T20:32:32.068Z,22.9
2018-05-02T20:33:22.429Z,22.9
2018-05-02T20:34:12.496Z,22.9
2018-05-02T20:35:02.568Z,22.9
2018-05-02T20:35:51.775Z,22.9
2018-05-02T20:36:42.412Z,22.9
2018-05-02T20:37:32.767Z,22.9
2018-05-02T20:38:22.538Z,22.9
2018-05-02T20:39:12.881Z,22.8
2018-05-02T20:40:02.941Z,22.9
2018-05-02T20:40:52.997Z,22.8
2018-05-02T20:41:43.057Z,22.8
2018-05-02T20:42:33.211Z,22.8
2018-05-02T20:43:22.938Z,22.8
2018-05-02T20:44:13.330Z,22.8
2018-05-02T20:45:03.338Z,22.8
2018-05-02T20:45:53.126Z,22.8
2018-05-02T20:46:42.681Z,22.8
2018-05-02T20:47:33.227Z,22.8
2018-05-02T20:48:23.088Z,22.7
2018-05-02T20:49:12.876Z,22.7
2018-05-02T20:50:03.240Z,22.7
2018-05-02T20:50:53.013Z,22.6
2018-05-02T20:51:43.344Z,22.6
2018-05-02T20:52:33.605Z,22.6
2018-05-02T20:53:23.122Z,22.6
2018-05-02T20:54:14.043Z,22.6
2018-05-02T20:55:04.603Z,22.6
2018-05-02T20:55:53.878Z,22.6
2018-05-02T20:56:43.929Z,22.6
2018-05-02T20:57:34.286Z,22.5
2018-05-02T20:58:23.783Z,22.6
2018-05-02T20:59:14.432Z,22.5
2018-05-02T21:00:04.211Z,22.4
2018-05-02T21:00:54.541Z,22.4
2018-05-02T21:01:44.626Z,22.4
2018-05-02T21:02:34.677Z,22.4
2018-05-02T21:03:24.744Z,22.4